Time;durP1;ratioP1;P1;durP2;ratioP2;P2;SDS_P1;SDS_P2;PMS_P1;PMS_P2;Temp;Humidity;BMP_temperature;BMP_pressure;BME280_temperature;BME280_humidity;BME280_pressure;Samples;Min_cycle;Max_cycle;Signal;HPM_P1;HPM_P2
2022/06/21 00:00:41;;;;;;;6.75;3.70;;;17.20;99.90;;;;;;5004595;28;20315;-70
2022/06/21 00:03:30;;;;;;;4.53;3.80;;;17.20;99.90;;;;;;5000393;28;20248;-71
2022/06/21 00:06:21;;;;;;;5.57;4.00;;;17.10;99.90;;;;;;4997263;28;20230;-71
2022/06/21 00:09:12;;;;;;;4.13;3.47;;;17.00;99.90;;;;;;5002084;28;20218;-72
2022/06/21 00:12:00;;;;;;;3.70;3.38;;;17.00;99.90;;;;;;4994674;28;20215;-72
2022/06/21 00:14:50;;;;;;;2.88;2.67;;;16.90;99.90;;;;;;4981869;28;20868;-71
2022/06/21 00:17:48;;;;;;;3.65;2.67;;;16.80;99.90;;;;;;4981216;28;20242;-71
2022/06/21 00:20:37;;;;;;;3.53;2.33;;;16.80;99.90;;;;;;4975719;28;20310;-72
2022/06/21 00:23:29;;;;;;;2.35;1.95;;;16.80;99.90;;;;;;5001079;28;20225;-72
2022/06/21 00:26:20;;;;;;;2.25;1.63;;;16.80;99.90;;;;;;5004103;28;20249;-71
2022/06/21 00:29:09;;;;;;;1.58;1.20;;;16.70;99.90;;;;;;5000338;28;20233;-72
2022/06/21 00:31:58;;;;;;;2.95;1.35;;;16.50;99.90;;;;;;4998755;28;20230;-71
2022/06/21 00:34:48;;;;;;;2.72;1.20;;;16.50;99.90;;;;;;5000244;28;20233;-73
2022/06/21 00:37:37;;;;;;;1.98;1.73;;;16.40;99.90;;;;;;5002286;28;20228;-72
2022/06/21 00:40:34;;;;;;;2.85;1.70;;;16.50;99.90;;;;;;5014488;28;20226;-72
2022/06/21 00:43:27;;;;;;;3.63;1.60;;;16.50;99.90;;;;;;4995467;28;20585;-72
2022/06/21 00:46:35;;;;;;;3.20;2.10;;;16.30;99.90;;;;;;5001110;28;20306;-71
2022/06/21 00:49:27;;;;;;;4.45;2.33;;;16.30;99.90;;;;;;4995372;28;20222;-71
2022/06/21 00:52:22;;;;;;;3.88;2.60;;;16.30;99.90;;;;;;4990898;28;20346;-71
2022/06/21 00:55:16;;;;;;;5.28;2.65;;;16.30;99.90;;;;;;4983816;28;20231;-71
2022/06/21 00:58:06;;;;;;;4.13;2.78;;;16.30;99.90;;;;;;4997582;28;20225;-71
2022/06/21 01:01:00;;;;;;;3.70;2.90;;;16.30;99.90;;;;;;5010324;28;20885;-71
2022/06/21 01:03:53;;;;;;;6.07;3.33;;;16.20;99.90;;;;;;5002322;28;20229;-71
2022/06/21 01:06:45;;;;;;;3.85;3.45;;;16.10;99.90;;;;;;4995136;28;20262;-71
2022/06/21 01:09:39;;;;;;;6.03;3.63;;;16.20;99.90;;;;;;4995940;28;20279;-71
2022/06/21 01:12:31;;;;;;;4.53;3.38;;;16.40;99.90;;;;;;4991629;28;20225;-71
2022/06/21 01:15:29;;;;;;;4.40;3.35;;;16.20;99.90;;;;;;5001649;28;20241;-71
2022/06/21 01:18:22;;;;;;;4.32;3.70;;;16.20;99.90;;;;;;4999977;28;20233;-71
2022/06/21 01:21:14;;;;;;;5.28;3.50;;;16.00;99.90;;;;;;4998945;28;20226;-71
2022/06/21 01:24:12;;;;;;;4.15;3.78;;;16.00;99.90;;;;;;4988377;28;20647;-71
2022/06/21 01:27:04;;;;;;;5.57;3.70;;;15.90;99.90;;;;;;4985985;28;20232;-71
2022/06/21 01:29:54;;;;;;;5.47;3.60;;;15.80;99.90;;;;;;4999990;28;20218;-71
2022/06/21 01:32:46;;;;;;;7.80;4.07;;;15.80;99.90;;;;;;4996880;28;20272;-72
2022/06/21 01:35:38;;;;;;;16.08;4.32;;;15.70;99.90;;;;;;4999253;28;20344;-71
2022/06/21 01:38:30;;;;;;;4.47;4.07;;;15.70;99.90;;;;;;5002335;28;20230;-71
2022/06/21 01:41:25;;;;;;;3.95;3.53;;;15.80;99.90;;;;;;4996957;28;20946;-72
2022/06/21 01:44:19;;;;;;;5.55;4.20;;;15.70;99.90;;;;;;4997770;28;20282;-72
2022/06/21 01:47:13;;;;;;;5.07;4.30;;;15.90;99.90;;;;;;5000962;28;20297;-71
2022/06/21 01:50:04;;;;;;;4.53;4.05;;;15.70;99.90;;;;;;4999716;28;20799;-71
2022/06/21 01:52:56;;;;;;;8.73;5.03;;;15.60;99.90;;;;;;5001496;28;20230;-72
2022/06/21 01:55:48;;;;;;;8.98;5.38;;;15.60;99.90;;;;;;4996367;28;20344;-72
2022/06/21 01:58:43;;;;;;;6.55;5.43;;;15.60;99.90;;;;;;4999363;28;20242;-72
2022/06/21 02:01:40;;;;;;;5.60;5.00;;;15.60;99.90;;;;;;5001867;28;20873;-71
2022/06/21 02:04:32;;;;;;;8.55;5.60;;;15.50;99.90;;;;;;4996280;28;20926;-71
2022/06/21 02:07:28;;;;;;;8.13;5.50;;;15.50;99.90;;;;;;4992680;28;20227;-71
2022/06/21 02:10:23;;;;;;;9.88;5.72;;;15.50;99.90;;;;;;4999653;28;20753;-72
2022/06/21 02:13:15;;;;;;;7.10;5.75;;;15.40;99.90;;;;;;4998390;28;20236;-71
2022/06/21 02:16:10;;;;;;;7.70;5.15;;;15.30;99.90;;;;;;4994295;28;20222;-71
2022/06/21 02:19:00;;;;;;;9.02;5.28;;;15.30;99.90;;;;;;4999385;28;20250;-72
2022/06/21 02:21:49;;;;;;;11.30;5.85;;;15.40;99.90;;;;;;4997955;28;20218;-73
2022/06/21 02:24:42;;;;;;;7.38;4.65;;;15.40;99.90;;;;;;5001982;28;20773;-73
2022/06/21 02:27:33;;;;;;;7.15;5.10;;;15.40;99.90;;;;;;5001970;28;20241;-73
2022/06/21 02:30:29;;;;;;;6.80;5.30;;;15.40;99.90;;;;;;4997695;28;20221;-71
2022/06/21 02:33:22;;;;;;;5.53;4.75;;;15.40;99.90;;;;;;4998833;28;20586;-73
2022/06/21 02:36:17;;;;;;;6.00;4.18;;;15.40;99.90;;;;;;4998913;28;20328;-72
2022/06/21 02:39:07;;;;;;;4.97;4.50;;;15.40;99.90;;;;;;4995164;28;20222;-72
2022/06/21 02:42:02;;;;;;;7.63;4.78;;;15.50;99.90;;;;;;4991101;28;20241;-71
2022/06/21 02:44:58;;;;;;;9.05;4.65;;;15.40;99.90;;;;;;4993544;28;20230;-71
2022/06/21 02:47:49;;;;;;;6.90;4.80;;;15.40;99.90;;;;;;4999550;28;20348;-72
2022/06/21 02:50:43;;;;;;;9.70;5.28;;;15.40;99.90;;;;;;5003962;28;20248;-72
2022/06/21 02:53:37;;;;;;;8.85;5.03;;;15.20;99.90;;;;;;5001669;28;20598;-72
2022/06/21 02:56:31;;;;;;;7.47;5.28;;;15.20;99.90;;;;;;4995488;28;20316;-70
2022/06/21 02:59:20;;;;;;;7.38;5.50;;;15.30;99.90;;;;;;4989763;28;20227;-72
2022/06/21 03:02:13;;;;;;;6.43;5.38;;;15.40;99.90;;;;;;4995926;28;20226;-72
2022/06/21 03:05:05;;;;;;;5.85;5.35;;;15.50;99.90;;;;;;4998381;28;20229;-71
2022/06/21 03:07:58;;;;;;;7.00;6.25;;;15.40;99.90;;;;;;4999393;28;20218;-72
2022/06/21 03:10:50;;;;;;;6.70;5.55;;;15.40;99.90;;;;;;4999953;28;20376;-73
2022/06/21 03:13:39;;;;;;;9.82;6.00;;;15.40;99.90;;;;;;4995868;28;20723;-72
2022/06/21 03:16:29;;;;;;;7.10;6.40;;;15.40;99.90;;;;;;4996923;28;20776;-75
2022/06/21 03:19:22;;;;;;;8.45;6.22;;;15.40;99.90;;;;;;4998402;28;20609;-74
2022/06/21 03:22:17;;;;;;;6.70;5.78;;;15.40;99.90;;;;;;4998856;28;20222;-73
2022/06/21 03:25:16;;;;;;;7.10;5.95;;;15.50;99.90;;;;;;4991663;28;20218;-70
2022/06/21 03:28:27;;;;;;;8.05;5.65;;;15.50;99.90;;;;;;4996444;28;20261;-71
2022/06/21 03:31:20;;;;;;;6.50;5.90;;;15.50;99.90;;;;;;4988997;28;20313;-72
2022/06/21 03:34:12;;;;;;;6.80;6.10;;;15.50;99.90;;;;;;5011699;28;20221;-71
2022/06/21 03:37:01;;;;;;;9.43;5.85;;;15.70;99.90;;;;;;4998970;28;20225;-71
2022/06/21 03:42:58;;;;;;;8.23;5.90;;;15.70;99.90;;;;;;4997220;28;20244;-71
2022/06/21 03:45:50;;;;;;;8.57;5.78;;;15.80;99.90;;;;;;5011282;28;20294;-69
2022/06/21 03:48:44;;;;;;;7.15;5.55;;;15.70;99.90;;;;;;4998839;28;20223;-69
2022/06/21 03:51:38;;;;;;;6.65;5.40;;;15.70;99.90;;;;;;4998706;28;20234;-71
2022/06/21 03:54:36;;;;;;;9.18;5.38;;;15.60;99.90;;;;;;5002014;28;20365;-69
2022/06/21 03:57:33;;;;;;;7.30;5.40;;;15.70;99.90;;;;;;5003200;28;20534;-73
2022/06/21 04:00:21;;;;;;;12.60;6.00;;;15.60;99.90;;;;;;4983272;28;20218;-72
2022/06/21 04:03:18;;;;;;;8.02;5.78;;;15.70;99.90;;;;;;4975228;28;20250;-72
2022/06/21 04:06:17;;;;;;;8.60;5.22;;;15.90;99.90;;;;;;4992110;28;20230;-69
2022/06/21 04:09:12;;;;;;;7.85;5.22;;;15.80;99.90;;;;;;5001085;28;20218;-70
2022/06/21 04:12:09;;;;;;;9.13;5.97;;;15.80;99.90;;;;;;5002413;28;20222;-70
2022/06/21 04:15:06;;;;;;;6.68;5.15;;;15.70;99.90;;;;;;5014350;28;20769;-73
2022/06/21 04:18:00;;;;;;;7.07;4.70;;;15.80;99.90;;;;;;5003594;28;20774;-72
2022/06/21 04:20:56;;;;;;;10.23;5.70;;;16.00;99.90;;;;;;5001304;28;20319;-72
2022/06/21 04:23:49;;;;;;;7.05;4.85;;;16.10;99.90;;;;;;4994926;28;20585;-73
2022/06/21 04:26:44;;;;;;;8.63;5.20;;;16.00;99.90;;;;;;5000910;28;20523;-72
2022/06/21 04:29:37;;;;;;;7.43;5.15;;;16.00;99.90;;;;;;5015452;28;20226;-73
2022/06/21 04:32:30;;;;;;;9.02;5.53;;;15.90;99.90;;;;;;5001804;28;20225;-74
2022/06/21 04:35:23;;;;;;;9.77;5.20;;;15.80;99.90;;;;;;4998199;28;20249;-72
2022/06/21 04:38:17;;;;;;;6.63;5.10;;;15.70;99.90;;;;;;5002109;28;20222;-74
2022/06/21 04:41:11;;;;;;;8.63;4.35;;;15.70;99.90;;;;;;4997756;28;20304;-73
2022/06/21 04:44:03;;;;;;;6.40;4.57;;;15.70;99.90;;;;;;4997131;28;20225;-73
2022/06/21 04:46:57;;;;;;;10.45;4.70;;;15.70;99.90;;;;;;5001280;28;20221;-71
2022/06/21 04:49:51;;;;;;;5.50;4.38;;;15.90;99.90;;;;;;5002671;28;20695;-72
2022/06/21 04:52:45;;;;;;;7.85;4.60;;;16.00;99.90;;;;;;5014016;28;20222;-71
2022/06/21 04:55:53;;;;;;;5.65;4.47;;;16.20;99.90;;;;;;4999387;28;20784;-72
2022/06/21 04:58:49;;;;;;;7.22;4.30;;;16.20;99.90;;;;;;5002666;28;20713;-72
2022/06/21 05:01:38;;;;;;;7.50;4.35;;;16.30;99.90;;;;;;4995931;28;20227;-72
2022/06/21 05:04:35;;;;;;;7.15;5.00;;;16.30;99.90;;;;;;5001107;28;20301;-72
2022/06/21 05:07:26;;;;;;;6.85;4.50;;;16.20;99.90;;;;;;4993158;28;20226;-72
2022/06/21 05:10:17;;;;;;;6.32;4.55;;;16.20;99.90;;;;;;4998614;28;20420;-71
2022/06/21 05:13:17;;;;;;;5.85;4.40;;;16.10;99.90;;;;;;4996505;28;20215;-72
2022/06/21 05:16:14;;;;;;;7.53;4.65;;;16.10;99.90;;;;;;4993632;28;20671;-72
2022/06/21 05:19:12;;;;;;;6.78;4.95;;;16.20;99.90;;;;;;5006322;28;20228;-73
2022/06/21 05:22:05;;;;;;;7.70;4.82;;;16.20;99.90;;;;;;4997820;28;20226;-70
2022/06/21 05:24:55;;;;;;;8.25;4.88;;;16.30;99.90;;;;;;4994733;28;20577;-72
2022/06/21 05:27:47;;;;;;;6.43;4.60;;;16.20;99.90;;;;;;4999647;28;20229;-71
2022/06/21 05:30:46;;;;;;;6.15;4.25;;;16.10;99.90;;;;;;5000624;28;20242;-72
2022/06/21 05:33:47;;;;;;;5.78;4.38;;;15.80;99.90;;;;;;5002208;28;20226;-72
2022/06/21 05:36:40;;;;;;;10.00;4.65;;;15.90;99.90;;;;;;5001457;28;20229;-73
2022/06/21 05:39:33;;;;;;;6.10;4.97;;;16.00;99.90;;;;;;5013777;28;20301;-72
2022/06/21 05:42:24;;;;;;;10.50;5.72;;;15.90;99.90;;;;;;5002462;28;20241;-72
2022/06/21 05:45:16;;;;;;;6.55;5.50;;;15.70;99.90;;;;;;4999029;28;20274;-72
2022/06/21 05:48:14;;;;;;;7.97;6.03;;;15.60;99.90;;;;;;5002336;28;20226;-71
2022/06/21 05:51:05;;;;;;;7.63;6.22;;;15.60;99.90;;;;;;4991004;28;20227;-73
2022/06/21 05:53:59;;;;;;;9.70;6.32;;;15.60;99.90;;;;;;4999175;28;20215;-73
2022/06/21 05:56:50;;;;;;;8.55;6.28;;;15.60;99.90;;;;;;5005839;28;20222;-72
2022/06/21 05:59:38;;;;;;;9.55;6.80;;;15.80;99.90;;;;;;4991150;28;20646;-72
2022/06/21 06:02:34;;;;;;;11.43;6.65;;;15.60;99.90;;;;;;4989651;28;20214;-73
2022/06/21 06:05:31;;;;;;;9.85;6.35;;;15.60;99.90;;;;;;5001368;28;20237;-74
2022/06/21 06:08:32;;;;;;;6.38;5.63;;;15.70;99.90;;;;;;4991194;28;20892;-73
2022/06/21 06:11:25;;;;;;;7.22;5.10;;;15.70;99.90;;;;;;5001755;28;20558;-74
2022/06/21 06:14:15;;;;;;;6.18;5.20;;;16.40;99.90;;;;;;4998499;28;20234;-73
2022/06/21 06:17:09;;;;;;;9.38;5.18;;;16.50;99.90;;;;;;4993799;28;20319;-74
2022/06/21 06:20:05;;;;;;;7.15;4.50;;;16.80;99.90;;;;;;4998879;28;20218;-75
2022/06/21 06:23:00;;;;;;;9.02;4.88;;;17.20;99.90;;;;;;5002542;28;20507;-75
2022/06/21 06:25:53;;;;;;;6.97;4.85;;;17.20;99.90;;;;;;4972229;28;20218;-72
2022/06/21 06:28:47;;;;;;;5.00;4.50;;;17.00;99.90;;;;;;4998092;28;20594;-71
2022/06/21 06:31:42;;;;;;;7.22;4.53;;;16.90;99.90;;;;;;5007789;28;20222;-71
2022/06/21 06:34:35;;;;;;;6.68;4.22;;;16.80;99.90;;;;;;4998241;28;20214;-71
2022/06/21 06:37:30;;;;;;;5.88;4.32;;;16.80;99.90;;;;;;5000389;28;20249;-68
2022/06/21 06:40:24;;;;;;;6.85;4.18;;;16.90;99.90;;;;;;5002158;28;20225;-69
2022/06/21 06:43:17;;;;;;;4.13;3.20;;;16.90;99.90;;;;;;4997125;28;20222;-69
2022/06/21 06:46:06;;;;;;;3.70;2.85;;;16.60;99.90;;;;;;4998379;28;20300;-71
2022/06/21 06:49:02;;;;;;;4.72;2.88;;;16.30;99.90;;;;;;4998776;28;20227;-70
2022/06/21 06:51:59;;;;;;;4.25;3.03;;;16.30;99.90;;;;;;5001120;28;20233;-70
2022/06/21 06:54:55;;;;;;;7.07;3.00;;;16.20;99.90;;;;;;5000075;28;20218;-71
2022/06/21 06:57:49;;;;;;;3.75;2.60;;;16.20;99.90;;;;;;4997539;28;20215;-71
2022/06/21 07:00:43;;;;;;;5.15;2.80;;;16.70;99.90;;;;;;5010679;28;20305;-71
2022/06/21 07:03:36;;;;;;;5.82;2.50;;;16.80;99.90;;;;;;4998253;28;20670;-71
2022/06/21 07:06:41;;;;;;;5.03;2.55;;;16.80;99.90;;;;;;4972558;28;20239;-71
2022/06/21 07:09:33;;;;;;;6.80;2.63;;;16.60;99.90;;;;;;5000179;28;20229;-70
2022/06/21 07:12:25;;;;;;;3.70;2.45;;;16.30;99.90;;;;;;4993165;28;20284;-72
2022/06/21 07:15:16;;;;;;;3.72;2.65;;;16.00;99.90;;;;;;5007794;28;20241;-70
2022/06/21 07:18:12;;;;;;;4.68;2.67;;;15.70;99.90;;;;;;4998751;28;20331;-71
2022/06/21 07:21:01;;;;;;;4.50;2.53;;;15.60;99.90;;;;;;5000121;28;20215;-70
2022/06/21 07:23:52;;;;;;;5.10;3.10;;;15.60;99.90;;;;;;5009186;28;20708;-70
2022/06/21 07:26:47;;;;;;;7.28;3.13;;;15.70;99.90;;;;;;4996948;28;20686;-71
2022/06/21 07:29:39;;;;;;;7.13;3.15;;;15.90;99.90;;;;;;5010637;28;20237;-70
2022/06/21 07:32:38;;;;;;;6.63;3.33;;;15.80;99.90;;;;;;4993970;28;20226;-69
2022/06/21 07:35:33;;;;;;;4.93;2.70;;;15.60;99.90;;;;;;4997485;28;20214;-70
2022/06/21 07:38:28;;;;;;;3.42;2.50;;;15.60;99.90;;;;;;4996062;28;20236;-69
2022/06/21 07:41:23;;;;;;;5.60;2.35;;;15.50;99.90;;;;;;5000123;28;20237;-70
2022/06/21 07:44:22;;;;;;;2.83;2.47;;;15.30;99.90;;;;;;4999459;28;20237;-70
2022/06/21 07:47:21;;;;;;;5.38;2.60;;;15.40;99.90;;;;;;4998818;28;20320;-70
2022/06/21 07:50:17;;;;;;;5.15;2.63;;;15.40;99.90;;;;;;4997177;28;20221;-69
2022/06/21 07:53:10;;;;;;;3.65;2.20;;;15.40;99.90;;;;;;4994642;28;20211;-70
2022/06/21 07:56:06;;;;;;;4.10;2.88;;;15.40;99.90;;;;;;4987570;28;20218;-70
2022/06/21 07:58:59;;;;;;;6.53;2.90;;;15.50;99.90;;;;;;4997450;28;20234;-69
2022/06/21 08:08:22;;;;;;;7.93;3.20;;;15.80;99.90;;;;;;4998537;28;20725;-70
2022/06/21 08:11:15;;;;;;;4.97;2.88;;;15.90;99.90;;;;;;4993198;28;20222;-71
2022/06/21 08:14:04;;;;;;;3.15;2.85;;;15.90;99.90;;;;;;5003805;28;20217;-72
2022/06/21 08:17:11;;;;;;;6.32;2.75;;;15.90;99.90;;;;;;5012425;28;20298;-72
2022/06/21 08:20:04;;;;;;;26.00;19.77;;;15.80;99.90;;;;;;5001568;28;20249;-70
2022/06/21 08:22:58;;;;;;;10.05;3.53;;;16.10;99.90;;;;;;5003941;28;20747;-69
2022/06/21 08:25:54;;;;;;;7.85;3.42;;;15.90;99.90;;;;;;5001078;28;21019;-71
2022/06/21 08:28:49;;;;;;;12.30;3.42;;;15.70;99.90;;;;;;4999628;28;20219;-71
2022/06/21 08:31:40;;;;;;;17.30;6.35;;;15.60;99.90;;;;;;4998199;28;20238;-71
2022/06/21 08:34:37;;;;;;;18.42;5.60;;;15.40;99.90;;;;;;5000530;28;20229;-70
2022/06/21 08:37:37;;;;;;;8.90;4.75;;;15.20;99.90;;;;;;5000218;28;20218;-70
2022/06/21 08:40:48;;;;;;;6.72;5.03;;;15.00;99.90;;;;;;5002889;28;20736;-70
2022/06/21 08:44:03;;;;;;;6.65;4.90;;;15.10;99.90;;;;;;5002590;28;20229;-70
2022/06/21 08:47:30;;;;;;;5.30;4.30;;;15.20;99.90;;;;;;4998537;28;20330;-70
2022/06/21 08:50:55;;;;;;;6.72;3.75;;;15.20;99.90;;;;;;4991098;28;20242;-70
2022/06/21 08:53:58;;;;;;;7.28;3.30;;;15.20;99.90;;;;;;4996576;28;20278;-71
2022/06/21 08:56:55;;;;;;;5.47;2.90;;;15.30;99.90;;;;;;4999255;28;20210;-70
2022/06/21 08:59:55;;;;;;;3.42;3.05;;;15.40;99.90;;;;;;5001670;28;20224;-70
2022/06/21 09:03:04;;;;;;;4.20;2.70;;;15.50;99.90;;;;;;4993043;28;20315;-71
2022/06/21 09:06:09;;;;;;;7.05;2.65;;;15.30;99.90;;;;;;4996247;28;20566;-73
2022/06/21 09:09:10;;;;;;;4.95;2.85;;;15.40;99.90;;;;;;5001004;28;20214;-71
2022/06/21 09:12:07;;;;;;;4.25;2.40;;;15.60;99.90;;;;;;5004440;28;20218;-72
2022/06/21 09:15:11;;;;;;;4.53;2.53;;;15.70;99.90;;;;;;5001174;28;20569;-71
2022/06/21 09:18:21;;;;;;;9.07;2.65;;;16.90;99.90;;;;;;4998031;28;20321;-73
2022/06/21 09:21:16;;;;;;;5.95;2.60;;;17.80;99.90;;;;;;5000339;28;20702;-72
2022/06/21 09:24:13;;;;;;;9.20;2.53;;;18.10;99.90;;;;;;5000662;28;20550;-73
2022/06/21 09:27:10;;;;;;;5.22;2.65;;;17.90;99.90;;;;;;4999085;28;20712;-74
2022/06/21 09:30:08;;;;;;;3.50;2.50;;;19.20;99.90;;;;;;4999575;28;20230;-71
2022/06/21 09:33:04;;;;;;;9.60;2.22;;;19.00;99.90;;;;;;4996849;28;20227;-71
2022/06/21 09:36:03;;;;;;;4.60;2.55;;;18.50;99.90;;;;;;5000329;28;20218;-72
2022/06/21 09:39:04;;;;;;;2.63;2.00;;;18.30;99.90;;;;;;5000410;28;20236;-72
2022/06/21 09:42:02;;;;;;;2.42;2.03;;;17.70;99.90;;;;;;4998159;28;20234;-73
2022/06/21 09:45:01;;;;;;;2.67;2.22;;;17.10;99.90;;;;;;4996973;28;21156;-72
2022/06/21 09:48:02;;;;;;;6.32;3.38;;;16.50;99.90;;;;;;4998966;28;20234;-73
2022/06/21 09:50:58;;;;;;;9.23;2.88;;;16.10;99.90;;;;;;4998541;28;20593;-71
2022/06/21 09:53:59;;;;;;;5.05;2.80;;;15.90;99.90;;;;;;4998548;28;20230;-72
2022/06/21 09:56:52;;;;;;;5.22;2.90;;;15.60;99.90;;;;;;5000425;28;20221;-72
2022/06/21 09:59:48;;;;;;;4.28;2.83;;;15.50;99.90;;;;;;4998337;28;20245;-72
2022/06/21 10:02:49;;;;;;;3.90;2.35;;;15.50;99.90;;;;;;5000404;28;20586;-71
2022/06/21 10:05:46;;;;;;;4.78;2.45;;;15.70;99.90;;;;;;5001542;28;20250;-71
2022/06/21 10:09:00;;;;;;;5.38;2.55;;;16.10;99.90;;;;;;5010553;28;20697;-73
2022/06/21 10:12:01;;;;;;;7.53;2.45;;;18.00;99.90;;;;;;4996426;28;20233;-70
2022/06/21 10:15:05;;;;;;;8.50;3.65;;;19.30;99.90;;;;;;4992845;28;20230;-72
2022/06/21 10:18:16;;;;;;;3.90;2.15;;;23.20;99.90;;;;;;5003423;28;20234;-72
2022/06/21 10:21:43;;;;;;;5.50;1.95;;;25.30;99.90;;;;;;4999830;28;20355;-71
2022/06/21 10:24:59;;;;;;;4.18;2.10;;;26.50;99.90;;;;;;4985644;28;20218;-72
2022/06/21 10:28:22;;;;;;;5.82;2.03;;;24.90;99.90;;;;;;5003134;28;20979;-73
2022/06/21 10:31:35;;;;;;;5.10;2.03;;;23.90;99.90;;;;;;4998258;28;20219;-72
2022/06/21 10:34:53;;;;;;;4.28;2.25;;;23.40;99.90;;;;;;4982313;28;20316;-73
2022/06/21 10:37:57;;;;;;;3.53;2.78;;;23.90;99.90;;;;;;4995002;28;20301;-72
2022/06/21 10:40:59;;;;;;;3.38;1.85;;;26.70;99.90;;;;;;4999220;28;20232;-72
2022/06/21 10:44:04;;;;;;;3.38;1.77;;;24.00;98.00;;;;;;4996542;28;20230;-73
2022/06/21 10:46:58;;;;;;;3.63;1.90;;;22.10;99.90;;;;;;4995176;28;20226;-69
2022/06/21 10:50:04;;;;;;;3.35;2.10;;;22.20;99.90;;;;;;4998013;28;20360;-71
2022/06/21 10:53:49;;;;;;;3.35;2.10;;;20.90;99.90;;;;;;4993463;28;20245;-69
2022/06/21 11:55:03;;;;;;;2.47;1.60;;;23.10;95.00;;;;;;5008036;27;20601;-69
2022/06/21 11:58:00;;;;;;;3.65;1.83;;;22.00;99.90;;;;;;5012211;28;20304;-71
2022/06/21 12:00:54;;;;;;;4.03;1.55;;;21.10;99.90;;;;;;5016982;28;20222;-71
2022/06/21 12:03:57;;;;;;;4.78;1.75;;;20.50;99.90;;;;;;5014566;28;20233;-71
2022/06/21 12:06:52;;;;;;;3.00;1.38;;;20.30;99.90;;;;;;5018691;28;20229;-72
2022/06/21 12:10:11;;;;;;;4.55;1.55;;;20.00;99.90;;;;;;5019545;28;20221;-72
2022/06/21 12:13:06;;;;;;;5.55;1.50;;;19.60;99.90;;;;;;5037056;28;20319;-70
2022/06/21 12:16:18;;;;;;;4.95;1.42;;;19.40;99.90;;;;;;5016340;28;20363;-71
2022/06/21 12:19:11;;;;;;;5.03;1.63;;;19.30;99.90;;;;;;5017437;28;20217;-70
2022/06/21 12:22:10;;;;;;;4.63;1.55;;;19.40;99.90;;;;;;5016218;28;20218;-72
2022/06/21 12:24:58;;;;;;;4.43;1.52;;;19.30;99.90;;;;;;5016961;28;20293;-72
2022/06/21 12:27:49;;;;;;;14.63;4.30;;;19.20;99.90;;;;;;5016772;28;20217;-73
2022/06/21 12:30:38;;;;;;;4.90;1.58;;;18.80;99.90;;;;;;5018610;28;20213;-70
2022/06/21 12:33:33;;;;;;;6.07;1.58;;;17.40;99.90;;;;;;5017309;28;20278;-72
2022/06/21 12:36:40;;;;;;;3.42;0.93;;;16.80;99.90;;;;;;5014694;28;20230;-72
2022/06/21 12:39:43;;;;;;;2.80;1.50;;;16.70;99.90;;;;;;5012197;28;20213;-72
2022/06/21 12:42:48;;;;;;;2.95;1.10;;;16.90;99.90;;;;;;5015871;28;20249;-71
2022/06/21 12:45:59;;;;;;;7.20;1.25;;;17.50;99.90;;;;;;5026992;28;20748;-72
2022/06/21 12:49:22;;;;;;;3.53;1.10;;;17.80;99.90;;;;;;5045537;28;20584;-69
2022/06/21 12:52:22;;;;;;;7.07;1.20;;;18.40;99.90;;;;;;5017675;28;20983;-71
2022/06/21 12:55:17;;;;;;;19.83;1.88;;;17.90;99.90;;;;;;5017432;28;20214;-71
2022/06/21 12:58:16;;;;;;;6.05;1.17;;;18.50;99.90;;;;;;5027015;28;20304;-75
2022/06/21 13:01:13;;;;;;;4.43;0.90;;;18.40;99.90;;;;;;5011694;28;20291;-78
2022/06/21 13:04:20;;;;;;;3.55;1.98;;;18.50;99.90;;;;;;5019229;28;20300;-75
2022/06/21 13:07:23;;;;;;;3.20;1.30;;;18.60;99.90;;;;;;5015211;28;20567;-73
2022/06/21 13:10:27;;;;;;;3.17;1.48;;;18.90;99.90;;;;;;5004538;28;20214;-72
2022/06/21 13:13:39;;;;;;;2.50;1.20;;;19.10;99.90;;;;;;5004546;28;20308;-71
2022/06/21 13:16:46;;;;;;;5.68;1.60;;;19.30;99.90;;;;;;5004866;28;20226;-73
2022/06/21 13:19:51;;;;;;;4.15;1.30;;;19.30;99.90;;;;;;4996978;28;20225;-73
2022/06/21 13:22:58;;;;;;;3.28;1.20;;;19.30;99.90;;;;;;4998835;28;20238;-74
2022/06/21 13:25:58;;;;;;;1.92;1.10;;;19.40;99.90;;;;;;5004103;28;20227;-75
2022/06/21 13:28:58;;;;;;;5.25;1.02;;;19.30;99.90;;;;;;4999281;28;20234;-73
2022/06/21 13:31:53;;;;;;;1.65;1.05;;;19.20;99.90;;;;;;5002662;28;20238;-73
2022/06/21 13:34:47;;;;;;;3.40;0.90;;;19.10;99.90;;;;;;5001709;28;20300;-72
2022/06/21 13:37:41;;;;;;;3.55;1.10;;;19.10;99.90;;;;;;5004791;28;20528;-73
2022/06/21 13:40:36;;;;;;;2.90;0.90;;;19.00;99.90;;;;;;5004058;28;20643;-72
2022/06/21 13:43:35;;;;;;;3.10;1.00;;;18.90;99.90;;;;;;5009388;28;20831;-71
2022/06/21 13:46:27;;;;;;;2.92;0.90;;;19.00;99.90;;;;;;5015635;28;20272;-71
2022/06/21 13:49:28;;;;;;;6.55;1.70;;;19.00;99.90;;;;;;5004660;28;20768;-73
2022/06/21 13:52:22;;;;;;;6.28;1.20;;;19.10;99.90;;;;;;5006089;28;20252;-71
2022/06/21 13:55:41;;;;;;;5.85;1.15;;;19.20;99.90;;;;;;4998904;28;20761;-72
2022/06/21 13:58:37;;;;;;;3.55;2.25;;;19.30;99.90;;;;;;5001414;28;20219;-73
2022/06/21 14:01:32;;;;;;;7.88;1.80;;;19.30;99.90;;;;;;5002406;28;20218;-73
2022/06/21 14:04:34;;;;;;;1.33;0.88;;;19.10;99.90;;;;;;5000403;28;20241;-72
2022/06/21 14:07:33;;;;;;;2.60;1.20;;;18.90;99.90;;;;;;4999834;28;20237;-73
2022/06/21 14:10:34;;;;;;;3.88;1.00;;;18.70;99.90;;;;;;4994444;28;21248;-73
2022/06/21 14:13:29;;;;;;;2.08;0.95;;;18.40;99.90;;;;;;4998044;28;20565;-70
2022/06/21 14:16:22;;;;;;;7.25;1.30;;;18.10;99.90;;;;;;5007708;28;20265;-70
2022/06/21 14:19:18;;;;;;;5.10;1.02;;;18.00;99.90;;;;;;5000139;28;20313;-69
2022/06/21 14:42:20;;;;;;;2.30;1.20;;;19.10;99.90;;;;;;5059543;27;20650;-70
2022/06/21 14:45:15;;;;;;;4.70;2.25;;;19.00;99.90;;;;;;5068563;28;20303;-69
2022/06/21 14:48:13;;;;;;;4.40;1.17;;;19.10;99.90;;;;;;5077219;28;20222;-69
2022/06/21 14:51:10;;;;;;;5.22;1.20;;;19.00;99.90;;;;;;5090044;28;20572;-69
2022/06/21 14:54:30;;;;;;;4.32;1.20;;;18.80;99.90;;;;;;5072471;28;20215;-69
2022/06/21 14:57:51;;;;;;;6.28;1.17;;;18.90;99.90;;;;;;5070175;28;20981;-70
2022/06/21 15:00:48;;;;;;;2.40;1.30;;;18.90;99.90;;;;;;5092863;28;20238;-69
2022/06/21 15:03:51;;;;;;;3.65;1.52;;;18.80;99.90;;;;;;5090222;28;20210;-69
2022/06/21 15:06:41;;;;;;;2.75;1.48;;;18.80;99.90;;;;;;5088176;27;20224;-70
2022/06/21 15:09:43;;;;;;;8.13;2.38;;;18.70;99.90;;;;;;5089479;28;20305;-70
2022/06/21 15:12:43;;;;;;;4.85;1.98;;;18.60;99.90;;;;;;5066085;28;20597;-69
2022/06/21 15:15:39;;;;;;;5.88;2.70;;;18.60;99.90;;;;;;5068000;28;20216;-68
2022/06/21 15:18:33;;;;;;;2.28;1.30;;;18.60;99.90;;;;;;5074402;28;20219;-69
2022/06/21 15:21:29;;;;;;;5.57;1.40;;;18.60;99.90;;;;;;5075109;28;20225;-69
2022/06/21 15:24:23;;;;;;;4.55;1.08;;;18.80;99.90;;;;;;5086575;28;20238;-70
2022/06/21 15:27:19;;;;;;;2.88;1.20;;;18.80;99.90;;;;;;5094540;27;20215;-70
2022/06/21 15:30:14;;;;;;;3.80;1.30;;;18.80;99.90;;;;;;5092234;28;20322;-70
2022/06/21 15:33:04;;;;;;;3.80;1.67;;;18.80;99.90;;;;;;5089095;28;20237;-69
2022/06/21 15:36:04;;;;;;;4.10;1.17;;;18.80;99.90;;;;;;5091390;28;20392;-69
2022/06/21 15:39:05;;;;;;;4.75;1.40;;;18.70;99.90;;;;;;5088944;28;20230;-72
2022/06/21 15:42:05;;;;;;;3.97;1.42;;;18.90;99.90;;;;;;5085606;28;20294;-73
2022/06/21 15:44:59;;;;;;;2.17;1.15;;;19.00;99.90;;;;;;5089467;28;20206;-73
2022/06/21 15:51:09;;;;;;;3.20;1.23;;;19.00;99.90;;;;;;5084982;28;20211;-70
2022/06/21 15:54:08;;;;;;;4.32;2.58;;;19.00;99.90;;;;;;5076889;28;20338;-72
2022/06/21 15:57:07;;;;;;;3.05;1.88;;;18.90;99.90;;;;;;5073466;28;20220;-71
2022/06/21 16:00:02;;;;;;;2.78;1.10;;;18.80;99.90;;;;;;5075648;28;20251;-71
2022/06/21 16:03:27;;;;;;;2.30;1.20;;;18.80;99.90;;;;;;5081586;28;20219;-71
2022/06/21 16:06:21;;;;;;;7.10;1.15;;;18.90;99.90;;;;;;5061284;28;20400;-72
2022/06/21 16:09:12;;;;;;;2.70;1.10;;;18.80;99.90;;;;;;5075519;28;22291;-71
2022/06/21 16:12:04;;;;;;;3.88;2.00;;;18.60;99.90;;;;;;5082870;28;20223;-73
2022/06/21 16:14:56;;;;;;;4.75;1.58;;;18.60;99.90;;;;;;5076114;28;20246;-72
2022/06/21 16:17:48;;;;;;;3.25;1.45;;;18.70;99.90;;;;;;5075418;28;20226;-71
2022/06/21 16:20:42;;;;;;;4.38;1.67;;;18.80;99.90;;;;;;5076742;28;20260;-72
2022/06/21 16:23:36;;;;;;;6.50;1.52;;;18.90;99.90;;;;;;5074621;28;20219;-72
2022/06/21 16:26:32;;;;;;;4.00;1.30;;;18.90;99.90;;;;;;5078420;28;20224;-71
2022/06/21 16:29:26;;;;;;;4.93;2.17;;;18.80;99.90;;;;;;5063660;28;20318;-79
2022/06/21 16:35:30;;;;;;;4.43;1.33;;;18.50;99.90;;;;;;5078869;28;20228;-77
2022/06/21 16:38:32;;;;;;;3.08;1.38;;;18.40;99.90;;;;;;5060736;28;21173;-75
2022/06/21 16:44:44;;;;;;;3.40;1.25;;;18.40;99.90;;;;;;5048762;28;20223;-73
2022/06/21 16:47:39;;;;;;;5.13;1.40;;;18.40;99.90;;;;;;5079557;28;20219;-74
2022/06/21 16:50:35;;;;;;;4.75;1.60;;;18.50;99.90;;;;;;5087532;27;20219;-74
2022/06/21 16:53:29;;;;;;;9.65;2.40;;;18.50;99.90;;;;;;5062349;28;20220;-74
2022/06/21 16:56:20;;;;;;;4.68;1.83;;;18.60;99.90;;;;;;5065764;28;20561;-74